Terminal Aerodrome Forecast
Issued by NWS

Home | Current Version | Previous Version | Text Only | Print | Product List | Glossary On
Versions: 1 2 3 4 5 6 7 8 9 10 11 12 13 14 15 16 17 18
000
FTUS41 KBGM 031735
TAFELM
TAF
KELM 031735Z 0318/0418 VRB02KT P6SM SKC
     FM040500 VRB03KT P6SM OVC060
      TEMPO 0408/0412 -RA OVC025
     FM041200 19005KT 5SM -RA BR OVC025=

USA.gov is the U.S. government's official web portal to all federal, state and local government web resources and services.